Time;durP1;ratioP1;P1;durP2;ratioP2;P2;SDS_P1;SDS_P2;PMS_P1;PMS_P2;Temp;Humidity;BMP_temperature;BMP_pressure;BME280_temperature;BME280_humidity;BME280_pressure;Samples;Min_cycle;Max_cycle;Signal;HPM_P1;HPM_P2
2022/06/07 00:01:10;;;;;;;3.05;2.15;;;16.20;59.70;;;;;;5050903;28;20048;-44
2022/06/07 00:03:39;;;;;;;3.05;1.90;;;16.10;59.80;;;;;;5048393;28;20033;-47
2022/06/07 00:06:12;;;;;;;2.35;2.15;;;16.10;59.90;;;;;;5045458;28;20564;-45
2022/06/07 00:08:42;;;;;;;1.98;1.75;;;16.00;59.70;;;;;;5031353;28;20069;-50
2022/06/07 00:11:11;;;;;;;3.08;1.83;;;16.00;59.80;;;;;;5031442;28;20041;-47
2022/06/07 00:13:38;;;;;;;2.83;1.85;;;15.90;59.70;;;;;;5041088;28;20033;-50
2022/06/07 00:16:11;;;;;;;2.85;2.20;;;15.90;59.80;;;;;;5041113;28;20045;-46
2022/06/07 00:18:43;;;;;;;2.58;2.38;;;15.80;59.80;;;;;;5051330;28;20045;-47
2022/06/07 00:21:13;;;;;;;3.33;2.40;;;15.80;59.90;;;;;;5046684;28;20165;-48
2022/06/07 00:23:42;;;;;;;2.55;2.35;;;15.70;59.80;;;;;;5047184;28;20060;-49
2022/06/07 00:26:14;;;;;;;2.42;2.25;;;15.70;60.20;;;;;;5046887;28;20037;-47
2022/06/07 00:28:41;;;;;;;2.60;2.40;;;15.70;60.20;;;;;;5048335;28;20411;-50
2022/06/07 00:31:13;;;;;;;2.58;2.38;;;15.60;60.10;;;;;;5041792;28;20035;-50
2022/06/07 00:33:42;;;;;;;2.22;2.13;;;15.60;60.40;;;;;;5045450;28;20049;-46
2022/06/07 00:36:12;;;;;;;4.00;2.60;;;15.50;60.20;;;;;;5045324;28;20044;-50
2022/06/07 00:38:43;;;;;;;2.53;2.33;;;15.50;60.30;;;;;;5047800;28;20495;-49
2022/06/07 00:41:10;;;;;;;2.53;2.33;;;15.50;60.50;;;;;;5048362;28;20045;-50
2022/06/07 00:44:01;;;;;;;2.60;2.40;;;15.40;60.50;;;;;;5038899;28;20065;-48
2022/06/07 00:46:29;;;;;;;3.38;2.33;;;15.40;60.80;;;;;;5028931;28;20045;-46
2022/06/07 00:48:56;;;;;;;2.60;2.40;;;15.40;60.50;;;;;;5013951;28;20037;-49
2022/06/07 00:51:27;;;;;;;2.40;2.17;;;15.40;60.60;;;;;;5049103;28;20037;-50
2022/06/07 00:53:54;;;;;;;3.20;2.40;;;15.40;60.70;;;;;;5042312;28;20120;-49
2022/06/07 00:56:27;;;;;;;3.15;2.80;;;15.30;60.90;;;;;;5048318;28;20037;-48
2022/06/07 00:58:54;;;;;;;3.63;3.05;;;15.30;61.30;;;;;;5036076;28;20104;-49
2022/06/07 01:01:33;;;;;;;3.28;2.90;;;15.30;61.80;;;;;;5045678;28;20102;-50
2022/06/07 01:04:02;;;;;;;4.68;3.00;;;15.30;62.30;;;;;;5044493;28;20457;-47
2022/06/07 01:12:06;;;;;;;2.50;2.35;;;15.30;61.90;;;;;;5034998;28;20041;-51
2022/06/07 01:14:38;;;;;;;2.28;2.17;;;15.30;61.80;;;;;;5044912;28;20500;-44
2022/06/07 01:17:05;;;;;;;3.78;2.65;;;15.30;62.10;;;;;;5035031;28;20044;-49
2022/06/07 01:19:37;;;;;;;;;;;15.30;61.90;;;;;;5041070;28;20469;-50
2022/06/07 01:22:04;;;;;;;4.05;2.95;;;15.30;61.90;;;;;;5040690;28;19927;-49
2022/06/07 01:24:39;;;;;;;3.45;3.03;;;15.30;61.60;;;;;;5045265;28;20167;-47
2022/06/07 01:27:08;;;;;;;4.18;3.30;;;15.30;62.40;;;;;;5048746;28;20655;-48
2022/06/07 01:29:43;;;;;;;5.53;3.20;;;15.30;63.00;;;;;;5041437;28;20091;-49
2022/06/07 01:32:18;;;;;;;7.45;3.20;;;15.30;63.30;;;;;;5036543;28;20152;-46
2022/06/07 01:34:46;;;;;;;4.35;3.30;;;15.30;64.20;;;;;;5043014;28;20175;-49
2022/06/07 01:37:20;;;;;;;5.97;3.38;;;15.30;64.00;;;;;;5045443;28;20064;-49
2022/06/07 01:42:32;;;;;;;3.97;3.33;;;15.40;64.40;;;;;;5049437;28;20071;-49
2022/06/07 01:45:01;;;;;;;4.22;3.00;;;15.40;64.50;;;;;;5044001;28;20041;-49
2022/06/07 01:47:31;;;;;;;3.20;3.00;;;15.50;64.70;;;;;;5039966;28;20042;-48
2022/06/07 01:50:06;;;;;;;4.07;2.95;;;15.50;64.90;;;;;;5048505;28;20075;-47
2022/06/07 01:52:34;;;;;;;7.20;3.05;;;15.50;64.60;;;;;;5045280;28;20099;-48
2022/06/07 01:55:13;;;;;;;3.30;3.00;;;15.50;64.70;;;;;;5041672;28;20044;-50
2022/06/07 01:57:58;;;;;;;3.60;3.30;;;15.60;64.90;;;;;;5043620;28;20053;-50
2022/06/07 02:00:25;;;;;;;4.22;2.90;;;15.60;64.60;;;;;;5039867;28;20041;-50
2022/06/07 02:02:52;;;;;;;3.42;3.13;;;15.60;64.60;;;;;;5048684;28;20049;-48
2022/06/07 02:05:27;;;;;;;3.28;2.92;;;15.60;64.70;;;;;;5045631;28;20159;-49
2022/06/07 02:07:58;;;;;;;4.13;2.55;;;15.60;64.70;;;;;;5042289;28;20065;-50
2022/06/07 02:10:34;;;;;;;4.75;2.92;;;15.60;64.60;;;;;;5047821;28;20045;-49
2022/06/07 02:13:11;;;;;;;3.00;2.58;;;15.60;64.70;;;;;;5035363;28;20099;-48
2022/06/07 02:15:43;;;;;;;3.53;2.63;;;15.60;64.60;;;;;;5094013;22;20037;-47
2022/06/07 02:18:17;;;;;;;2.55;2.35;;;15.70;64.90;;;;;;5040046;28;20477;-47
2022/06/07 02:21:01;;;;;;;2.88;2.67;;;15.70;64.70;;;;;;5064890;28;20066;-50
2022/06/07 02:23:30;;;;;;;3.75;2.80;;;15.70;64.60;;;;;;5049398;28;20571;-47
2022/06/07 02:26:03;;;;;;;3.33;2.50;;;15.70;64.70;;;;;;5055369;28;20045;-48
2022/06/07 02:28:39;;;;;;;4.03;2.38;;;15.70;64.80;;;;;;5048882;28;20033;-50
2022/06/07 02:31:11;;;;;;;5.00;2.72;;;15.70;64.80;;;;;;5043621;28;20397;-53
2022/06/07 02:33:44;;;;;;;4.20;2.80;;;15.60;65.10;;;;;;5052967;28;20044;-47
2022/06/07 02:36:12;;;;;;;3.17;2.72;;;15.70;64.60;;;;;;5041574;28;20478;-51
2022/06/07 02:38:40;;;;;;;5.50;2.58;;;15.60;65.10;;;;;;5053199;28;20075;-54
2022/06/07 02:41:12;;;;;;;2.88;2.55;;;15.60;64.50;;;;;;5049620;28;20048;-49
2022/06/07 02:43:38;;;;;;;2.85;2.42;;;15.60;64.80;;;;;;5052550;28;20040;-50
2022/06/07 02:46:11;;;;;;;3.75;2.65;;;15.70;64.50;;;;;;5055071;28;20071;-48
2022/06/07 02:48:40;;;;;;;3.05;2.75;;;15.60;64.40;;;;;;5034674;28;20041;-53
2022/06/07 02:51:07;;;;;;;5.13;2.90;;;15.60;64.40;;;;;;5051764;28;20400;-48
2022/06/07 02:53:36;;;;;;;4.88;2.75;;;15.60;64.40;;;;;;5049492;28;20033;-52
2022/06/07 02:56:05;;;;;;;4.40;3.17;;;15.60;64.50;;;;;;5046099;28;20075;-56
2022/06/07 02:58:34;;;;;;;2.70;2.50;;;15.60;64.40;;;;;;5046774;28;20048;-52
2022/06/07 03:01:08;;;;;;;4.97;2.50;;;15.60;64.50;;;;;;5039588;28;20049;-47
2022/06/07 03:03:42;;;;;;;4.30;3.13;;;15.60;64.40;;;;;;5043309;28;20048;-47
2022/06/07 03:06:13;;;;;;;3.63;2.90;;;15.60;64.40;;;;;;5014176;28;20060;-50
2022/06/07 03:08:49;;;;;;;5.95;2.47;;;15.60;64.40;;;;;;5017794;28;20064;-49
2022/06/07 03:11:19;;;;;;;2.97;2.50;;;15.60;64.50;;;;;;5043287;28;20048;-51
2022/06/07 03:13:47;;;;;;;3.88;2.50;;;15.60;64.50;;;;;;5035081;28;20087;-51
2022/06/07 03:16:25;;;;;;;3.20;2.50;;;15.60;64.50;;;;;;5041340;28;20115;-47
2022/06/07 03:19:02;;;;;;;4.32;3.00;;;15.60;64.60;;;;;;5051006;28;20049;-51
2022/06/07 03:21:33;;;;;;;3.03;2.60;;;15.60;64.50;;;;;;5041444;28;20041;-48
2022/06/07 03:24:02;;;;;;;4.05;2.88;;;15.50;64.40;;;;;;5041339;28;20041;-52
2022/06/07 03:26:29;;;;;;;4.97;3.35;;;15.50;64.40;;;;;;5049505;28;20037;-50
2022/06/07 03:29:10;;;;;;;3.05;2.75;;;15.50;64.50;;;;;;5030986;28;20045;-52
2022/06/07 03:31:40;;;;;;;2.33;2.13;;;15.50;64.50;;;;;;5032206;28;20037;-48
2022/06/07 03:34:12;;;;;;;4.22;2.53;;;15.50;64.50;;;;;;5037073;28;20041;-51
2022/06/07 03:36:47;;;;;;;3.03;2.60;;;15.50;64.60;;;;;;5032054;28;20056;-51
2022/06/07 03:39:15;;;;;;;4.47;3.08;;;15.50;64.40;;;;;;5051897;28;20052;-49
2022/06/07 03:41:55;;;;;;;3.78;2.47;;;15.50;64.50;;;;;;5042178;28;20072;-47
2022/06/07 03:44:28;;;;;;;5.78;2.42;;;15.50;64.50;;;;;;5066764;28;20045;-52
2022/06/07 03:47:07;;;;;;;4.57;2.80;;;15.50;64.60;;;;;;5030071;28;20050;-47
2022/06/07 03:49:34;;;;;;;2.85;2.20;;;15.50;64.70;;;;;;5033933;28;20041;-47
2022/06/07 03:52:01;;;;;;;4.72;2.72;;;15.50;64.80;;;;;;5042042;28;20045;-47
2022/06/07 03:54:36;;;;;;;4.53;2.75;;;15.50;64.90;;;;;;5064046;28;20128;-47
2022/06/07 03:57:03;;;;;;;3.42;2.78;;;15.50;65.10;;;;;;5045022;28;20044;-51
2022/06/07 03:59:33;;;;;;;4.15;2.65;;;15.50;64.90;;;;;;5045391;28;20037;-49
2022/06/07 04:02:03;;;;;;;5.00;2.80;;;15.50;65.00;;;;;;5050540;28;20132;-48
2022/06/07 04:04:31;;;;;;;2.88;2.63;;;15.50;65.10;;;;;;5050273;28;20043;-48
2022/06/07 04:09:56;;;;;;;7.50;2.47;;;15.60;65.20;;;;;;5045451;28;20645;-51
2022/06/07 04:12:31;;;;;;;3.28;2.13;;;15.60;65.10;;;;;;5049912;28;20385;-53
2022/06/07 04:14:58;;;;;;;3.92;2.25;;;15.70;65.10;;;;;;5041900;28;20114;-50
2022/06/07 04:17:25;;;;;;;2.60;2.40;;;15.70;65.20;;;;;;5041427;28;20098;-47
2022/06/07 04:20:10;;;;;;;2.88;2.50;;;15.70;65.10;;;;;;5036483;28;20136;-55
2022/06/07 04:22:37;;;;;;;4.88;3.28;;;15.80;64.90;;;;;;5029645;28;20057;-50
2022/06/07 04:25:08;;;;;;;3.53;2.17;;;15.80;64.80;;;;;;5039197;28;20072;-52
2022/06/07 04:27:39;;;;;;;3.40;3.00;;;15.90;64.90;;;;;;5055542;28;20080;-52
2022/06/07 04:30:07;;;;;;;3.15;2.00;;;15.90;64.80;;;;;;5032265;28;20056;-48
2022/06/07 04:32:39;;;;;;;2.50;2.20;;;15.90;64.70;;;;;;5032414;28;20080;-51
2022/06/07 04:35:06;;;;;;;4.10;2.58;;;16.00;64.60;;;;;;5016909;28;20052;-50
2022/06/07 04:37:33;;;;;;;6.13;3.03;;;16.00;64.50;;;;;;5046971;28;20045;-49
2022/06/07 04:40:05;;;;;;;4.90;2.30;;;16.00;64.50;;;;;;5032328;28;20048;-48
2022/06/07 04:42:32;;;;;;;2.78;2.50;;;16.10;64.50;;;;;;5031437;28;20144;-51
2022/06/07 04:45:06;;;;;;;4.20;2.85;;;16.10;64.40;;;;;;5034261;28;20145;-51
2022/06/07 04:47:59;;;;;;;3.30;2.60;;;16.10;64.20;;;;;;5046878;28;20122;-49
2022/06/07 04:50:27;;;;;;;4.53;2.22;;;16.20;64.20;;;;;;5040134;28;20068;-48
2022/06/07 04:52:54;;;;;;;4.20;2.47;;;16.10;64.10;;;;;;5039157;28;20041;-50
2022/06/07 04:55:22;;;;;;;3.72;2.63;;;16.20;64.30;;;;;;5032944;28;20554;-50
2022/06/07 04:57:53;;;;;;;5.03;2.65;;;16.20;64.40;;;;;;5038700;28;20072;-51
2022/06/07 05:00:20;;;;;;;3.85;2.63;;;16.20;64.30;;;;;;5063168;28;20127;-47
2022/06/07 05:02:55;;;;;;;4.97;3.00;;;16.20;64.40;;;;;;5048416;28;20456;-50
2022/06/07 05:05:22;;;;;;;4.03;2.65;;;16.20;64.30;;;;;;5038289;28;20041;-49
2022/06/07 05:07:50;;;;;;;4.07;3.05;;;16.30;64.30;;;;;;5042487;28;20091;-48
2022/06/07 05:10:21;;;;;;;4.30;2.55;;;16.30;64.10;;;;;;5038061;28;20037;-48
2022/06/07 05:12:53;;;;;;;5.93;2.90;;;16.30;64.10;;;;;;5029792;28;20246;-49
2022/06/07 05:15:23;;;;;;;3.55;2.33;;;16.30;63.90;;;;;;5041546;28;20420;-51
2022/06/07 05:17:54;;;;;;;3.50;2.80;;;16.30;63.90;;;;;;5042698;28;20056;-49
2022/06/07 05:20:23;;;;;;;4.47;2.88;;;16.20;63.90;;;;;;5038457;28;20115;-51
2022/06/07 05:22:56;;;;;;;4.72;2.83;;;16.20;63.90;;;;;;5028799;28;20045;-50
2022/06/07 05:25:24;;;;;;;6.90;3.30;;;16.20;64.10;;;;;;5037209;28;20180;-50
2022/06/07 05:27:53;;;;;;;3.72;2.72;;;16.20;64.20;;;;;;5038681;28;20045;-56
2022/06/07 05:30:28;;;;;;;3.15;2.72;;;16.20;64.20;;;;;;5048491;28;20040;-52
2022/06/07 05:33:01;;;;;;;4.25;3.08;;;16.30;64.40;;;;;;5035846;28;20122;-54
2022/06/07 05:35:33;;;;;;;6.38;3.25;;;16.30;64.50;;;;;;5052073;28;20080;-50
2022/06/07 05:38:05;;;;;;;5.13;2.95;;;16.30;64.70;;;;;;5023022;28;20497;-56
2022/06/07 05:40:34;;;;;;;6.10;3.30;;;16.30;64.90;;;;;;5028366;28;20075;-49
2022/06/07 05:43:03;;;;;;;7.75;3.58;;;16.40;65.00;;;;;;5032771;28;20143;-53
2022/06/07 05:45:37;;;;;;;4.90;3.53;;;16.40;65.10;;;;;;5027676;28;20069;-55
2022/06/07 05:48:17;;;;;;;5.07;3.30;;;16.50;65.20;;;;;;5045712;28;20060;-54
2022/06/07 05:50:52;;;;;;;5.00;2.85;;;16.60;65.30;;;;;;5028147;28;20091;-49
2022/06/07 05:53:25;;;;;;;5.05;2.95;;;16.60;65.10;;;;;;5044942;28;20103;-51
2022/06/07 05:55:54;;;;;;;4.72;3.38;;;16.70;65.20;;;;;;5025119;28;20138;-53
2022/06/07 05:58:21;;;;;;;4.68;3.33;;;16.80;64.70;;;;;;5031458;28;20071;-54
2022/06/07 06:00:48;;;;;;;4.03;2.90;;;16.90;64.50;;;;;;5035370;28;20049;-53
2022/06/07 06:03:20;;;;;;;5.82;3.63;;;17.00;64.30;;;;;;5050941;28;20126;-54
2022/06/07 06:05:48;;;;;;;5.15;2.50;;;17.10;64.30;;;;;;5034978;28;20052;-49
2022/06/07 06:10:19;;;;;;;4.75;3.50;;;17.30;64.50;;;;;;5049054;28;20106;-55
2022/06/07 06:11:17;;;;;;;6.03;2.95;;;17.40;64.40;;;;;;5039822;28;20037;-49
2022/06/07 06:14:07;;;;;;;3.75;2.88;;;17.50;64.00;;;;;;5041463;28;20115;-50
2022/06/07 06:16:46;;;;;;;4.87;3.03;;;17.70;63.60;;;;;;5032252;28;20045;-49
2022/06/07 06:19:23;;;;;;;5.40;2.80;;;17.80;63.20;;;;;;5053680;28;20071;-50
2022/06/07 06:21:50;;;;;;;6.60;3.00;;;17.90;62.70;;;;;;5043308;28;20121;-52
2022/06/07 06:24:23;;;;;;;4.53;2.53;;;18.00;62.30;;;;;;5038058;28;20465;-50
2022/06/07 06:26:52;;;;;;;4.25;2.72;;;18.10;62.40;;;;;;5032337;28;20073;-53
2022/06/07 06:29:22;;;;;;;4.95;3.08;;;18.10;62.40;;;;;;5031353;28;20190;-51
2022/06/07 06:31:51;;;;;;;3.53;2.72;;;18.20;62.00;;;;;;5051071;28;20041;-51
2022/06/07 06:34:19;;;;;;;4.28;2.85;;;18.30;62.00;;;;;;5037419;28;20041;-50
2022/06/07 06:36:47;;;;;;;5.25;2.88;;;18.30;62.40;;;;;;5049763;28;20123;-50
2022/06/07 06:39:21;;;;;;;4.78;3.05;;;18.50;62.00;;;;;;5040788;28;20462;-52
2022/06/07 06:41:50;;;;;;;3.92;2.75;;;18.50;61.50;;;;;;5051317;28;20082;-51
2022/06/07 06:44:23;;;;;;;4.03;2.15;;;18.60;61.80;;;;;;5054835;28;20051;-52
2022/06/07 06:46:53;;;;;;;7.22;3.25;;;18.70;61.60;;;;;;5040775;28;20056;-52
2022/06/07 06:49:20;;;;;;;5.75;2.72;;;18.80;61.80;;;;;;5059341;28;20041;-54
2022/06/07 06:51:48;;;;;;;3.97;2.70;;;18.90;61.10;;;;;;5040780;28;20045;-50
2022/06/07 06:54:18;;;;;;;2.88;2.25;;;18.90;60.60;;;;;;5052110;28;20037;-50
2022/06/07 06:56:54;;;;;;;2.90;2.35;;;19.00;60.50;;;;;;5043360;28;20690;-50
2022/06/07 06:59:25;;;;;;;4.55;2.67;;;19.10;60.30;;;;;;5060609;28;20103;-52
2022/06/07 07:01:56;;;;;;;5.00;2.40;;;19.10;60.00;;;;;;5051531;28;20052;-50
2022/06/07 07:04:25;;;;;;;2.53;1.90;;;19.20;59.80;;;;;;5050471;28;20049;-57
2022/06/07 07:06:54;;;;;;;3.60;2.38;;;19.20;60.10;;;;;;5041600;28;20064;-53
2022/06/07 07:09:24;;;;;;;3.80;2.50;;;19.20;59.70;;;;;;5048762;28;20508;-53
2022/06/07 07:11:58;;;;;;;4.15;2.47;;;19.30;59.90;;;;;;5036836;28;20454;-54
2022/06/07 07:14:36;;;;;;;4.18;2.50;;;19.30;59.70;;;;;;5028761;28;20087;-52
2022/06/07 07:17:04;;;;;;;2.70;2.50;;;19.40;59.80;;;;;;5061161;28;20052;-53
2022/06/07 07:19:33;;;;;;;4.90;2.50;;;19.50;59.70;;;;;;5051272;28;20052;-51
2022/06/07 07:22:03;;;;;;;2.55;2.05;;;19.50;59.50;;;;;;5032581;28;20068;-52
2022/06/07 07:24:30;;;;;;;3.88;2.28;;;19.60;59.40;;;;;;5045261;28;20049;-50
2022/06/07 07:27:01;;;;;;;3.10;2.38;;;19.60;59.60;;;;;;5045313;28;20574;-51
2022/06/07 07:29:29;;;;;;;5.15;2.35;;;19.70;59.60;;;;;;5037046;28;20038;-53
2022/06/07 07:32:01;;;;;;;;;;;19.80;59.20;;;;;;5056897;28;20041;-54
2022/06/07 07:34:35;;;;;;;3.75;1.95;;;19.90;59.30;;;;;;5033071;28;19925;-57
2022/06/07 07:37:02;;;;;;;4.53;2.30;;;20.00;59.10;;;;;;5049146;28;20509;-54
2022/06/07 07:39:33;;;;;;;2.28;2.08;;;20.10;58.90;;;;;;5035255;28;20090;-53
2022/06/07 07:42:00;;;;;;;4.85;2.20;;;20.30;59.00;;;;;;5036145;28;20048;-53
2022/06/07 07:44:33;;;;;;;3.58;2.22;;;20.30;58.70;;;;;;5031370;28;20045;-52
2022/06/07 07:47:00;;;;;;;3.42;2.20;;;20.40;58.60;;;;;;5049526;28;20041;-53
2022/06/07 07:49:33;;;;;;;2.67;2.28;;;20.50;57.70;;;;;;5038204;28;20036;-52
2022/06/07 07:52:04;;;;;;;5.00;2.85;;;20.70;57.30;;;;;;5026772;28;20049;-53
2022/06/07 07:54:33;;;;;;;3.47;1.95;;;20.70;56.70;;;;;;5046517;28;20059;-54
2022/06/07 07:57:04;;;;;;;2.90;1.70;;;20.70;57.00;;;;;;5044126;28;20212;-49
2022/06/07 07:59:38;;;;;;;4.00;1.58;;;20.80;56.80;;;;;;5049659;28;20040;-50
2022/06/07 08:02:13;;;;;;;3.80;1.63;;;20.90;56.90;;;;;;5053859;28;20144;-54
2022/06/07 08:04:40;;;;;;;2.65;1.67;;;20.90;56.40;;;;;;5028848;28;20049;-50
2022/06/07 08:07:07;;;;;;;4.05;1.63;;;21.10;56.00;;;;;;5044937;28;20537;-53
2022/06/07 08:09:34;;;;;;;2.25;1.35;;;21.10;55.70;;;;;;5049871;28;20670;-53
2022/06/07 08:12:06;;;;;;;1.85;1.40;;;21.10;55.50;;;;;;5050606;28;20558;-52
2022/06/07 08:14:33;;;;;;;8.02;2.00;;;21.30;54.80;;;;;;5049425;28;20952;-51
2022/06/07 08:17:00;;;;;;;2.05;1.27;;;21.40;54.80;;;;;;5050152;28;20107;-51
2022/06/07 08:19:27;;;;;;;2.42;1.50;;;21.50;54.60;;;;;;5050053;28;20049;-52
2022/06/07 08:21:54;;;;;;;2.47;1.48;;;21.60;54.20;;;;;;5050160;28;20045;-54
2022/06/07 08:24:25;;;;;;;2.58;1.67;;;21.60;53.50;;;;;;5050116;28;20111;-55
2022/06/07 08:26:52;;;;;;;2.60;1.58;;;21.70;53.80;;;;;;5048752;28;20106;-50
2022/06/07 08:29:22;;;;;;;1.60;1.30;;;21.80;53.40;;;;;;5049123;28;20040;-50
2022/06/07 08:31:49;;;;;;;6.80;1.52;;;21.80;53.00;;;;;;5049970;28;20045;-54
2022/06/07 08:39:47;;;;;;;2.05;1.27;;;22.00;52.40;;;;;;5050759;28;20440;-53
2022/06/07 08:42:19;;;;;;;2.00;1.25;;;22.00;52.30;;;;;;5054508;28;20045;-52
2022/06/07 08:44:59;;;;;;;2.35;1.55;;;22.10;52.40;;;;;;5044205;28;20100;-51
2022/06/07 08:47:45;;;;;;;2.60;1.60;;;22.10;52.90;;;;;;5045480;28;20524;-52
2022/06/07 08:50:19;;;;;;;2.13;1.20;;;22.20;51.30;;;;;;5049663;28;20037;-53
2022/06/07 08:52:49;;;;;;;3.83;1.58;;;22.30;51.60;;;;;;5025156;28;20055;-53
2022/06/07 08:55:17;;;;;;;1.85;1.65;;;22.30;52.90;;;;;;5047872;28;20094;-53
2022/06/07 08:57:59;;;;;;;2.08;1.60;;;22.30;51.80;;;;;;5045301;28;20042;-53
2022/06/07 09:00:32;;;;;;;2.22;1.38;;;22.40;51.60;;;;;;5038381;28;20052;-51
2022/06/07 09:03:01;;;;;;;;;;;22.40;51.40;;;;;;5041341;28;20398;-53
2022/06/07 09:05:28;;;;;;;2.40;1.55;;;22.50;52.40;;;;;;5036572;28;20011;-50
2022/06/07 09:07:58;;;;;;;2.80;1.30;;;22.50;51.90;;;;;;5043085;28;20061;-53
2022/06/07 09:13:23;;;;;;;2.92;1.52;;;22.60;52.10;;;;;;5029248;28;20030;-53
2022/06/07 09:15:53;;;;;;;4.03;1.35;;;22.70;51.80;;;;;;5042717;28;20098;-51
2022/06/07 09:18:26;;;;;;;1.88;1.63;;;22.70;52.10;;;;;;5037761;28;20048;-53
2022/06/07 09:21:00;;;;;;;3.42;1.88;;;22.70;51.20;;;;;;5029613;28;20045;-53
2022/06/07 09:23:39;;;;;;;2.33;1.50;;;22.80;51.20;;;;;;5036417;28;20056;-54
2022/06/07 09:26:20;;;;;;;1.73;1.33;;;22.80;51.60;;;;;;5048023;28;20029;-54
2022/06/07 09:29:15;;;;;;;1.80;1.30;;;22.80;50.90;;;;;;5034371;28;20046;-54
2022/06/07 09:31:45;;;;;;;1.48;1.23;;;22.90;52.10;;;;;;5030887;28;20497;-55
2022/06/07 09:34:29;;;;;;;1.85;1.27;;;23.00;52.40;;;;;;5049080;28;20102;-50
2022/06/07 09:37:01;;;;;;;2.63;1.40;;;23.00;53.00;;;;;;5041625;28;20063;-53
2022/06/07 09:39:36;;;;;;;2.78;1.10;;;23.10;52.10;;;;;;5053254;28;20098;-52
2022/06/07 09:42:29;;;;;;;4.35;1.45;;;23.20;52.40;;;;;;5048820;28;20103;-53
2022/06/07 09:45:13;;;;;;;1.83;1.20;;;23.20;51.70;;;;;;5051078;28;20435;-51
2022/06/07 09:47:39;;;;;;;1.52;1.08;;;23.30;51.00;;;;;;5048221;28;20037;-54
2022/06/07 09:50:31;;;;;;;1.63;1.02;;;23.30;51.60;;;;;;5033866;28;20041;-54
2022/06/07 09:53:07;;;;;;;2.63;0.98;;;23.30;50.80;;;;;;5047473;28;20132;-53
2022/06/07 09:55:42;;;;;;;2.10;0.85;;;23.30;51.50;;;;;;5048935;28;20037;-53
2022/06/07 09:58:12;;;;;;;2.00;1.00;;;23.40;52.00;;;;;;5049164;28;20470;-52
2022/06/07 10:01:01;;;;;;;4.63;1.73;;;23.50;51.20;;;;;;5041902;28;20467;-52
2022/06/07 10:03:46;;;;;;;4.32;1.38;;;23.40;50.00;;;;;;5047571;28;20078;-54
2022/06/07 10:06:20;;;;;;;1.85;1.10;;;23.40;49.80;;;;;;5049344;28;20381;-52
2022/06/07 10:09:05;;;;;;;1.98;1.40;;;23.40;50.30;;;;;;5050786;28;20041;-49
2022/06/07 10:12:03;;;;;;;1.27;1.17;;;23.40;50.40;;;;;;5049493;28;20044;-54
2022/06/07 10:14:43;;;;;;;2.10;1.02;;;23.50;50.40;;;;;;5014338;28;20034;-54
2022/06/07 10:17:25;;;;;;;2.38;1.23;;;23.60;50.10;;;;;;5013385;28;20060;-54
2022/06/07 10:20:41;;;;;;;2.70;1.45;;;23.70;49.80;;;;;;5039309;28;20076;-53
2022/06/07 10:23:11;;;;;;;2.33;1.48;;;23.80;49.30;;;;;;4957549;28;20050;-53
2022/06/07 10:26:04;;;;;;;2.75;1.10;;;23.90;49.80;;;;;;5040159;28;20045;-54
2022/06/07 10:29:06;;;;;;;1.40;1.30;;;24.00;49.70;;;;;;5028243;28;20546;-55
2022/06/07 10:31:48;;;;;;;1.50;0.97;;;24.10;49.30;;;;;;5049973;28;20040;-55
2022/06/07 10:34:37;;;;;;;2.83;1.08;;;24.20;49.10;;;;;;5042355;28;20078;-55
2022/06/07 10:37:20;;;;;;;1.30;1.00;;;24.30;49.10;;;;;;5041452;28;20059;-55
2022/06/07 10:39:56;;;;;;;1.92;1.20;;;24.30;48.90;;;;;;5050767;28;20400;-55
2022/06/07 10:42:34;;;;;;;1.48;0.98;;;24.40;49.30;;;;;;5049766;28;20067;-54
2022/06/07 10:45:04;;;;;;;3.08;1.23;;;24.40;49.20;;;;;;5034330;28;20531;-54
2022/06/07 10:47:35;;;;;;;1.17;1.13;;;24.50;49.40;;;;;;5032971;28;20092;-55
2022/06/07 10:50:23;;;;;;;1.30;1.02;;;24.60;49.20;;;;;;5044362;28;20455;-55
2022/06/07 10:53:16;;;;;;;2.17;1.23;;;24.70;49.40;;;;;;5045341;28;20041;-55
2022/06/07 10:56:05;;;;;;;2.75;1.42;;;24.80;49.30;;;;;;5031556;28;20041;-53
2022/06/07 10:58:40;;;;;;;2.35;1.50;;;24.90;48.10;;;;;;5047216;28;20056;-54
2022/06/07 11:01:19;;;;;;;1.42;1.33;;;25.00;48.20;;;;;;5042721;28;20649;-54
2022/06/07 11:04:04;;;;;;;1.58;1.30;;;25.10;49.20;;;;;;5041379;28;20123;-55
2022/06/07 11:09:47;;;;;;;1.80;1.38;;;25.30;48.90;;;;;;5032328;28;20067;-55
2022/06/07 11:12:20;;;;;;;2.35;1.10;;;25.40;48.40;;;;;;5043729;28;20041;-54
2022/06/07 11:15:16;;;;;;;1.85;1.33;;;25.40;47.80;;;;;;5051030;28;20037;-53
2022/06/07 11:17:49;;;;;;;5.75;1.83;;;25.40;47.70;;;;;;5049544;28;20045;-53
2022/06/07 11:20:20;;;;;;;1.58;1.10;;;25.40;47.60;;;;;;5042915;28;20494;-55
2022/06/07 11:22:55;;;;;;;2.40;1.40;;;25.30;47.80;;;;;;5038606;28;20046;-54
2022/06/07 11:25:55;;;;;;;1.27;0.98;;;25.20;47.40;;;;;;5046080;28;20053;-54
2022/06/07 11:28:27;;;;;;;1.67;1.10;;;25.10;47.70;;;;;;5047895;28;20067;-55
2022/06/07 11:31:21;;;;;;;2.05;1.23;;;25.10;47.70;;;;;;5031990;28;20547;-54
2022/06/07 11:33:51;;;;;;;2.38;0.98;;;25.00;47.20;;;;;;5025694;28;20128;-55
2022/06/07 11:36:20;;;;;;;2.72;1.30;;;24.90;47.20;;;;;;5050058;28;20075;-53
2022/06/07 11:38:53;;;;;;;3.38;0.93;;;24.80;47.30;;;;;;5046952;28;20045;-54
2022/06/07 11:41:49;;;;;;;1.70;1.20;;;24.70;47.10;;;;;;5042234;28;20110;-55
2022/06/07 11:44:59;;;;;;;1.02;0.98;;;24.60;47.40;;;;;;5044996;28;20045;-53
2022/06/07 11:47:30;;;;;;;1.65;1.17;;;24.50;47.40;;;;;;5039880;28;20057;-55
2022/06/07 11:50:00;;;;;;;1.20;1.10;;;24.40;47.40;;;;;;5044022;28;20076;-53
2022/06/07 11:52:33;;;;;;;1.75;1.00;;;24.40;47.90;;;;;;5046350;28;20045;-54
2022/06/07 11:55:38;;;;;;;3.92;1.35;;;24.30;48.20;;;;;;5025565;28;20099;-53
2022/06/07 11:58:07;;;;;;;2.08;0.95;;;24.30;48.80;;;;;;5047216;28;20044;-54
2022/06/07 12:00:41;;;;;;;1.75;1.38;;;24.20;49.00;;;;;;5048548;28;20535;-54
2022/06/07 12:03:11;;;;;;;3.50;1.65;;;24.10;49.30;;;;;;5050980;28;20044;-55
2022/06/07 12:05:45;;;;;;;2.38;1.05;;;24.10;49.60;;;;;;5038908;28;20048;-53
2022/06/07 12:08:28;;;;;;;4.32;1.50;;;24.00;50.00;;;;;;5038386;28;20520;-53
2022/06/07 12:11:06;;;;;;;2.90;2.30;;;24.00;51.10;;;;;;5040567;28;20516;-54
2022/06/07 12:13:54;;;;;;;3.25;2.15;;;24.00;51.80;;;;;;5030565;28;20040;-54
2022/06/07 12:16:28;;;;;;;2.33;1.60;;;23.90;52.60;;;;;;5048572;28;20548;-55
2022/06/07 12:18:57;;;;;;;2.70;1.85;;;23.80;52.10;;;;;;5027702;28;20444;-54
2022/06/07 12:21:25;;;;;;;3.38;2.10;;;23.70;53.00;;;;;;5051187;28;20037;-49
2022/06/07 12:24:09;;;;;;;2.20;2.00;;;23.70;54.00;;;;;;5050219;28;20107;-54
2022/06/07 12:26:38;;;;;;;2.78;1.70;;;23.60;55.30;;;;;;5039710;28;20467;-55
2022/06/07 12:29:07;;;;;;;1.70;1.60;;;23.50;55.70;;;;;;5032578;28;20423;-54
2022/06/07 12:32:13;;;;;;;2.40;1.63;;;23.50;55.90;;;;;;5036700;28;20037;-53
2022/06/07 12:34:40;;;;;;;1.88;1.77;;;23.40;56.70;;;;;;5030767;28;20620;-54
2022/06/07 12:37:10;;;;;;;2.58;1.90;;;23.30;56.90;;;;;;5038238;28;20053;-54
2022/06/07 12:39:53;;;;;;;2.75;1.92;;;23.30;57.20;;;;;;5045105;28;20044;-54
2022/06/07 12:42:22;;;;;;;2.45;1.75;;;23.20;57.50;;;;;;5039697;28;20106;-55
2022/06/07 12:44:57;;;;;;;2.10;1.90;;;23.20;57.40;;;;;;5037201;28;20040;-53
2022/06/07 12:47:31;;;;;;;1.67;1.58;;;23.10;58.60;;;;;;5035234;28;20056;-55
2022/06/07 12:49:59;;;;;;;1.92;1.73;;;23.00;58.70;;;;;;5039733;28;20044;-53
2022/06/07 12:52:31;;;;;;;2.55;2.35;;;23.00;59.10;;;;;;5037478;28;20037;-54
2022/06/07 12:55:12;;;;;;;2.30;1.75;;;22.90;60.30;;;;;;5044343;28;20041;-54
2022/06/07 12:57:50;;;;;;;6.47;2.45;;;22.80;60.40;;;;;;5027722;28;20029;-55
2022/06/07 13:00:23;;;;;;;3.08;1.92;;;22.80;59.70;;;;;;5036689;28;20046;-53
2022/06/07 13:03:00;;;;;;;2.20;1.92;;;22.70;59.30;;;;;;5033674;28;20064;-54
2022/06/07 13:05:33;;;;;;;1.75;1.65;;;22.70;59.70;;;;;;5045777;28;20045;-53
2022/06/07 13:08:16;;;;;;;2.17;1.80;;;22.60;59.30;;;;;;5043910;28;20037;-52
2022/06/07 13:10:44;;;;;;;2.63;2.40;;;22.60;60.00;;;;;;5032798;28;20051;-55
2022/06/07 13:13:29;;;;;;;3.03;2.33;;;22.50;60.10;;;;;;5006183;28;20041;-52
2022/06/07 13:16:05;;;;;;;2.60;2.40;;;22.50;59.70;;;;;;5018906;28;20060;-53
2022/06/07 13:18:35;;;;;;;3.97;2.53;;;22.40;60.00;;;;;;5041247;28;20045;-53
2022/06/07 13:21:16;;;;;;;5.63;3.55;;;22.40;60.50;;;;;;5019693;28;20080;-50
2022/06/07 13:23:45;;;;;;;6.38;4.82;;;22.40;60.50;;;;;;5039523;28;20140;-55
2022/06/07 13:26:15;;;;;;;7.45;6.68;;;22.40;60.40;;;;;;5027742;28;20036;-54
2022/06/07 13:28:46;;;;;;;7.82;7.10;;;22.40;60.40;;;;;;5037249;28;20046;-53
2022/06/07 13:31:30;;;;;;;7.97;7.18;;;22.40;60.30;;;;;;5025400;28;20838;-54
2022/06/07 13:34:12;;;;;;;10.32;7.80;;;22.40;61.00;;;;;;5031162;28;20513;-54
2022/06/07 13:36:41;;;;;;;6.68;6.07;;;22.40;61.30;;;;;;5019680;28;20050;-53
2022/06/07 13:39:23;;;;;;;6.47;5.88;;;22.30;59.80;;;;;;5030390;28;20688;-54
2022/06/07 13:42:09;;;;;;;7.80;6.82;;;22.30;60.30;;;;;;5018805;28;20041;-54
2022/06/07 13:44:43;;;;;;;6.97;6.15;;;22.20;60.60;;;;;;5027187;28;20053;-50